Malaga, OH (43757)

11:27 AM EDT die 16o September, anno 2014 (GMT -0400)
Jerusalem | Change Station
CLOSE
Current Station
Personal Weather Stations
Location: Jerusalem, OH
Elevation: 1253 ft
Nearby Weather Stations

Elev 1253 ft 39.86 °N, 81.11 °W | Updated 7 seconds ago

Aequaliter Nubila
Aequaliter Nubila
63.3 °F
Feels Like 63.3 °F
N
1.1
Ventus Variabilis Ventus from Aquilo
Gusts 3.0 mph

Hodie
High -- | Low -- °F
--% Chance of Precip.
Yesterday
High -- | Low -- °F
Precip. -- in
7:06 AM 7:31 PM
Last Quarter, 45% visible
Pressio 30.15 in
Visibilitas 10.0 milia passuum
Clouds Nubes Dispersae 1600 ft
Plerumque Nubila 2300 ft
Aequaliter Nubila 2900 ft
Frigus in quo Ros apparet 54 °F
Umor 71%
Rainfall 0.00 in
Snow Depth Not available.
UV 2 out of 12
Pollen 3.30 out of 12
Air Quality Not available.
Flu Activity Not available.
METAR KHLG 161453Z 35005KT 10SM SCT016 BKN023 OVC029 14/10 A3014 RMK AO2 SLP208 T01440100 51012

More Conditions Fewer Conditions

Pressio 30.15 in
Visibilitas 10.0 milia passuum
Clouds Nubes Dispersae 1600 ft
Plerumque Nubila 2300 ft
Aequaliter Nubila 2900 ft
Frigus in quo Ros apparet 54 °F
Umor 71%
Rainfall 0.00 in
Snow Depth Not available.
UV 2 out of 12
Pollen 3.30 out of 12
Air Quality Not available.
Flu Activity Not available.
METAR KHLG 161453Z 35005KT 10SM SCT016 BKN023 OVC029 14/10 A3014 RMK AO2 SLP208 T01440100 51012

More Conditions Fewer Conditions

10-Day Weather Forecast

Almanac

Astronomy

Sep. 16, 2014 Rise Set
Actual Time 7:06 AM EDT 7:31 PM EDT
Civil Twilight 6:39 AM EDT 7:58 PM EDT
Nautical Twilight 6:07 AM EDT 8:30 PM EDT
Astronomical Twilight 5:34 AM EDT 9:02 PM EDT
Moon 12:15 AM EDT 2:53 PM EDT
Length Of Visible Light 13h 19m
Length of Day
12h 25m
Tomorrow will be 2m 35s shorter.
Last Quarter, 45% of the Moon is Illuminated
Hodie
Last Quarter
Sep 24
New
Oct 1
First Quarter
Oct 8
Full
Oct 15
Last Quarter

Today's Extremes

State Highs State Lows

Community

WunderPhotos

Upload Photos

1,753,807 photos uploaded!

Nearby

Snow Depth

Station Depth Elevation
No new snow has been reported.

Earthquake Activity

City Distance Mag. Time & Date
No recent earthquake activity has been reported nearby.
Minimum magnitude displayed is 2.5.

Coastal Water Temperatures

Locus Calor
No Stations Reporting

Nearby Weather Stations